sensor_id;sensor_type;location;lat;lon;timestamp;pressure;altitude;pressure_sealevel;temperature;humidity
76132;BME280;64877;50.994;13.650;2023-11-22T00:00:27;100258.63;;;2.06;100.00
76132;BME280;64877;50.994;13.650;2023-11-22T00:02:52;100252.34;;;2.09;100.00
76132;BME280;64877;50.994;13.650;2023-11-22T00:05:19;100256.97;;;2.04;100.00
76132;BME280;64877;50.994;13.650;2023-11-22T00:07:44;100251.09;;;1.93;100.00
76132;BME280;64877;50.994;13.650;2023-11-22T00:10:09;100249.16;;;1.98;100.00
76132;BME280;64877;50.994;13.650;2023-11-22T00:12:35;100251.00;;;1.96;100.00
76132;BME280;64877;50.994;13.650;2023-11-22T00:15:04;100255.31;;;2.00;100.00
76132;BME280;64877;50.994;13.650;2023-11-22T00:17:32;100258.88;;;1.99;100.00
76132;BME280;64877;50.994;13.650;2023-11-22T00:19:58;100257.00;;;2.02;100.00
76132;BME280;64877;50.994;13.650;2023-11-22T00:22:26;100257.63;;;2.11;100.00
76132;BME280;64877;50.994;13.650;2023-11-22T00:24:52;100259.22;;;2.16;100.00
76132;BME280;64877;50.994;13.650;2023-11-22T00:27:18;100251.88;;;2.23;100.00
76132;BME280;64877;50.994;13.650;2023-11-22T00:29:44;100258.91;;;2.25;100.00
76132;BME280;64877;50.994;13.650;2023-11-22T00:32:11;100252.88;;;2.19;100.00
76132;BME280;64877;50.994;13.650;2023-11-22T00:34:37;100253.88;;;2.16;100.00
76132;BME280;64877;50.994;13.650;2023-11-22T00:37:02;100255.81;;;2.11;100.00
76132;BME280;64877;50.994;13.650;2023-11-22T00:39:28;100256.13;;;2.02;100.00
76132;BME280;64877;50.994;13.650;2023-11-22T00:41:53;100250.44;;;1.86;100.00
76132;BME280;64877;50.994;13.650;2023-11-22T00:44:19;100270.47;;;1.98;100.00
76132;BME280;64877;50.994;13.650;2023-11-22T00:46:44;100275.69;;;2.01;100.00
76132;BME280;64877;50.994;13.650;2023-11-22T00:49:11;100275.41;;;2.10;100.00
76132;BME280;64877;50.994;13.650;2023-11-22T00:51:36;100277.84;;;2.16;100.00
76132;BME280;64877;50.994;13.650;2023-11-22T00:54:02;100283.69;;;2.27;100.00
76132;BME280;64877;50.994;13.650;2023-11-22T00:56:27;100294.09;;;2.35;100.00
76132;BME280;64877;50.994;13.650;2023-11-22T00:58:53;100292.69;;;2.23;100.00
76132;BME280;64877;50.994;13.650;2023-11-22T01:01:22;100286.75;;;2.42;100.00
76132;BME280;64877;50.994;13.650;2023-11-22T01:03:47;100288.63;;;2.40;100.00
76132;BME280;64877;50.994;13.650;2023-11-22T01:06:13;100294.25;;;2.30;100.00
76132;BME280;64877;50.994;13.650;2023-11-22T01:08:39;100306.16;;;2.19;100.00
76132;BME280;64877;50.994;13.650;2023-11-22T01:11:04;100304.59;;;2.13;100.00
76132;BME280;64877;50.994;13.650;2023-11-22T01:13:32;100303.88;;;2.08;100.00
76132;BME280;64877;50.994;13.650;2023-11-22T01:16:11;100307.97;;;2.18;100.00
76132;BME280;64877;50.994;13.650;2023-11-22T01:18:38;100318.22;;;2.04;100.00
76132;BME280;64877;50.994;13.650;2023-11-22T01:21:04;100321.78;;;2.03;100.00
76132;BME280;64877;50.994;13.650;2023-11-22T01:23:30;100334.09;;;2.07;100.00
76132;BME280;64877;50.994;13.650;2023-11-22T01:25:57;100346.50;;;2.08;100.00
76132;BME280;64877;50.994;13.650;2023-11-22T01:28:24;100348.34;;;2.06;100.00
76132;BME280;64877;50.994;13.650;2023-11-22T01:30:49;100352.00;;;2.02;100.00
76132;BME280;64877;50.994;13.650;2023-11-22T01:33:15;100351.06;;;2.04;100.00
76132;BME280;64877;50.994;13.650;2023-11-22T01:35:41;100345.03;;;1.98;100.00
76132;BME280;64877;50.994;13.650;2023-11-22T01:38:06;100354.03;;;1.94;100.00
76132;BME280;64877;50.994;13.650;2023-11-22T01:40:33;100361.13;;;1.95;100.00
76132;BME280;64877;50.994;13.650;2023-11-22T01:42:59;100360.41;;;1.90;100.00
76132;BME280;64877;50.994;13.650;2023-11-22T01:45:25;100360.72;;;2.07;100.00
76132;BME280;64877;50.994;13.650;2023-11-22T01:47:51;100353.66;;;2.06;100.00
76132;BME280;64877;50.994;13.650;2023-11-22T01:50:18;100355.53;;;2.04;100.00
76132;BME280;64877;50.994;13.650;2023-11-22T01:52:45;100366.34;;;1.98;100.00
76132;BME280;64877;50.994;13.650;2023-11-22T01:55:12;100361.78;;;2.01;100.00
76132;BME280;64877;50.994;13.650;2023-11-22T01:57:38;100364.31;;;2.06;100.00
76132;BME280;64877;50.994;13.650;2023-11-22T02:00:04;100371.50;;;2.04;100.00
76132;BME280;64877;50.994;13.650;2023-11-22T02:02:38;100370.81;;;1.97;100.00
76132;BME280;64877;50.994;13.650;2023-11-22T02:05:04;100355.28;;;1.82;100.00
76132;BME280;64877;50.994;13.650;2023-11-22T02:07:30;100346.34;;;1.85;100.00
76132;BME280;64877;50.994;13.650;2023-11-22T02:09:57;100348.31;;;1.78;100.00
76132;BME280;64877;50.994;13.650;2023-11-22T02:12:23;100348.19;;;1.83;100.00
76132;BME280;64877;50.994;13.650;2023-11-22T02:14:49;100353.63;;;1.79;100.00
76132;BME280;64877;50.994;13.650;2023-11-22T02:17:15;100339.31;;;1.82;100.00
76132;BME280;64877;50.994;13.650;2023-11-22T02:19:42;100348.81;;;1.91;100.00
76132;BME280;64877;50.994;13.650;2023-11-22T02:22:11;100346.09;;;1.92;100.00
76132;BME280;64877;50.994;13.650;2023-11-22T02:24:36;100350.19;;;2.04;100.00
76132;BME280;64877;50.994;13.650;2023-11-22T02:27:02;100367.06;;;2.03;100.00
76132;BME280;64877;50.994;13.650;2023-11-22T02:29:29;100359.00;;;2.06;100.00
76132;BME280;64877;50.994;13.650;2023-11-22T02:31:54;100380.63;;;1.95;100.00
76132;BME280;64877;50.994;13.650;2023-11-22T02:34:19;100383.97;;;2.02;100.00
76132;BME280;64877;50.994;13.650;2023-11-22T02:36:45;100378.72;;;1.99;100.00
76132;BME280;64877;50.994;13.650;2023-11-22T02:39:10;100387.22;;;2.12;100.00
76132;BME280;64877;50.994;13.650;2023-11-22T02:41:36;100388.44;;;2.01;100.00
76132;BME280;64877;50.994;13.650;2023-11-22T02:44:02;100393.56;;;2.07;100.00
76132;BME280;64877;50.994;13.650;2023-11-22T02:46:28;100398.22;;;2.01;100.00
76132;BME280;64877;50.994;13.650;2023-11-22T02:48:55;100400.81;;;2.04;100.00
76132;BME280;64877;50.994;13.650;2023-11-22T02:51:20;100401.63;;;2.06;99.22
76132;BME280;64877;50.994;13.650;2023-11-22T02:53:48;100405.75;;;1.87;100.00
76132;BME280;64877;50.994;13.650;2023-11-22T02:56:14;100409.06;;;1.95;100.00
76132;BME280;64877;50.994;13.650;2023-11-22T02:58:40;100413.00;;;1.81;99.68
76132;BME280;64877;50.994;13.650;2023-11-22T03:01:06;100419.72;;;1.65;100.00
76132;BME280;64877;50.994;13.650;2023-11-22T03:03:35;100416.00;;;1.71;100.00
76132;BME280;64877;50.994;13.650;2023-11-22T03:06:01;100405.97;;;1.79;100.00
76132;BME280;64877;50.994;13.650;2023-11-22T03:08:26;100400.81;;;1.74;100.00
76132;BME280;64877;50.994;13.650;2023-11-22T03:10:53;100401.53;;;1.79;100.00
76132;BME280;64877;50.994;13.650;2023-11-22T03:13:28;100402.09;;;1.91;100.00
76132;BME280;64877;50.994;13.650;2023-11-22T03:15:53;100400.69;;;1.77;100.00
76132;BME280;64877;50.994;13.650;2023-11-22T03:18:19;100412.13;;;1.81;100.00
76132;BME280;64877;50.994;13.650;2023-11-22T03:20:46;100420.94;;;1.83;100.00
76132;BME280;64877;50.994;13.650;2023-11-22T03:23:12;100426.06;;;1.91;100.00
76132;BME280;64877;50.994;13.650;2023-11-22T03:25:37;100433.16;;;1.90;100.00
76132;BME280;64877;50.994;13.650;2023-11-22T03:28:03;100437.31;;;2.00;100.00
76132;BME280;64877;50.994;13.650;2023-11-22T03:30:29;100437.03;;;1.80;100.00
76132;BME280;64877;50.994;13.650;2023-11-22T03:32:54;100438.22;;;1.99;100.00
76132;BME280;64877;50.994;13.650;2023-11-22T03:35:21;100432.38;;;1.87;100.00
76132;BME280;64877;50.994;13.650;2023-11-22T03:37:47;100442.03;;;1.91;100.00
76132;BME280;64877;50.994;13.650;2023-11-22T03:40:12;100449.56;;;2.06;100.00
76132;BME280;64877;50.994;13.650;2023-11-22T03:42:39;100463.81;;;2.05;100.00
76132;BME280;64877;50.994;13.650;2023-11-22T03:45:05;100465.63;;;2.03;100.00
76132;BME280;64877;50.994;13.650;2023-11-22T03:47:32;100466.63;;;1.99;99.64
76132;BME280;64877;50.994;13.650;2023-11-22T03:49:58;100474.81;;;1.93;99.79
76132;BME280;64877;50.994;13.650;2023-11-22T03:52:25;100478.22;;;1.98;99.67
76132;BME280;64877;50.994;13.650;2023-11-22T03:54:52;100482.03;;;2.19;99.50
76132;BME280;64877;50.994;13.650;2023-11-22T03:57:17;100491.06;;;2.15;97.58
76132;BME280;64877;50.994;13.650;2023-11-22T03:59:43;100486.84;;;2.06;97.30
76132;BME280;64877;50.994;13.650;2023-11-22T04:02:08;100496.53;;;2.08;97.66
76132;BME280;64877;50.994;13.650;2023-11-22T04:04:35;100504.50;;;2.10;97.71
76132;BME280;64877;50.994;13.650;2023-11-22T04:07:01;100507.28;;;2.05;98.69
76132;BME280;64877;50.994;13.650;2023-11-22T04:09:27;100504.28;;;1.87;99.70
76132;BME280;64877;50.994;13.650;2023-11-22T04:11:54;100507.63;;;1.93;100.00
76132;BME280;64877;50.994;13.650;2023-11-22T04:14:20;100505.56;;;2.03;100.00
76132;BME280;64877;50.994;13.650;2023-11-22T04:16:47;100511.22;;;1.92;100.00
76132;BME280;64877;50.994;13.650;2023-11-22T04:19:12;100517.53;;;1.90;100.00
76132;BME280;64877;50.994;13.650;2023-11-22T04:21:37;100530.84;;;1.90;100.00
76132;BME280;64877;50.994;13.650;2023-11-22T04:24:03;100534.19;;;1.96;100.00
76132;BME280;64877;50.994;13.650;2023-11-22T04:26:29;100533.63;;;1.85;100.00
76132;BME280;64877;50.994;13.650;2023-11-22T04:28:54;100538.34;;;1.75;100.00
76132;BME280;64877;50.994;13.650;2023-11-22T04:31:20;100540.94;;;1.77;100.00
76132;BME280;64877;50.994;13.650;2023-11-22T04:33:45;100547.00;;;1.82;100.00
76132;BME280;64877;50.994;13.650;2023-11-22T04:36:11;100554.31;;;1.75;100.00
76132;BME280;64877;50.994;13.650;2023-11-22T04:38:37;100563.34;;;1.70;100.00
76132;BME280;64877;50.994;13.650;2023-11-22T04:41:03;100562.25;;;1.77;100.00
76132;BME280;64877;50.994;13.650;2023-11-22T04:43:28;100571.84;;;1.83;100.00
76132;BME280;64877;50.994;13.650;2023-11-22T04:45:54;100571.50;;;1.62;100.00
76132;BME280;64877;50.994;13.650;2023-11-22T04:48:20;100572.38;;;1.64;100.00
76132;BME280;64877;50.994;13.650;2023-11-22T04:50:45;100577.53;;;1.69;100.00
76132;BME280;64877;50.994;13.650;2023-11-22T04:53:11;100573.88;;;1.73;100.00
76132;BME280;64877;50.994;13.650;2023-11-22T04:55:36;100568.59;;;1.71;100.00
76132;BME280;64877;50.994;13.650;2023-11-22T04:58:03;100563.16;;;1.76;100.00
76132;BME280;64877;50.994;13.650;2023-11-22T05:00:28;100564.28;;;1.67;100.00
76132;BME280;64877;50.994;13.650;2023-11-22T05:03:00;100583.03;;;1.63;100.00
76132;BME280;64877;50.994;13.650;2023-11-22T05:05:26;100585.81;;;1.58;100.00
76132;BME280;64877;50.994;13.650;2023-11-22T05:07:52;100596.78;;;1.46;100.00
76132;BME280;64877;50.994;13.650;2023-11-22T05:10:17;100600.25;;;1.49;100.00
76132;BME280;64877;50.994;13.650;2023-11-22T05:12:43;100600.47;;;1.40;100.00
76132;BME280;64877;50.994;13.650;2023-11-22T05:15:09;100601.91;;;1.53;100.00
76132;BME280;64877;50.994;13.650;2023-11-22T05:17:35;100601.72;;;1.61;100.00
76132;BME280;64877;50.994;13.650;2023-11-22T05:20:01;100608.78;;;1.62;100.00
76132;BME280;64877;50.994;13.650;2023-11-22T05:22:26;100609.13;;;1.84;100.00
76132;BME280;64877;50.994;13.650;2023-11-22T05:24:52;100608.38;;;1.77;99.82
76132;BME280;64877;50.994;13.650;2023-11-22T05:27:17;100607.09;;;1.58;98.75
76132;BME280;64877;50.994;13.650;2023-11-22T05:29:43;100614.09;;;1.62;99.17
76132;BME280;64877;50.994;13.650;2023-11-22T05:32:08;100599.34;;;1.85;99.24
76132;BME280;64877;50.994;13.650;2023-11-22T05:34:34;100601.72;;;1.94;99.40
76132;BME280;64877;50.994;13.650;2023-11-22T05:36:59;100612.00;;;1.75;98.37
76132;BME280;64877;50.994;13.650;2023-11-22T05:39:25;100609.00;;;1.53;98.10
76132;BME280;64877;50.994;13.650;2023-11-22T05:41:51;100601.16;;;1.83;98.34
76132;BME280;64877;50.994;13.650;2023-11-22T05:44:17;100608.47;;;1.74;96.42
76132;BME280;64877;50.994;13.650;2023-11-22T05:46:42;100601.22;;;1.45;96.97
76132;BME280;64877;50.994;13.650;2023-11-22T05:49:08;100608.31;;;1.46;98.03
76132;BME280;64877;50.994;13.650;2023-11-22T05:51:33;100628.22;;;1.30;98.41
76132;BME280;64877;50.994;13.650;2023-11-22T05:53:59;100630.03;;;1.28;98.31
76132;BME280;64877;50.994;13.650;2023-11-22T05:56:25;100630.13;;;1.25;99.13
76132;BME280;64877;50.994;13.650;2023-11-22T05:58:50;100622.09;;;1.26;99.41
76132;BME280;64877;50.994;13.650;2023-11-22T06:01:16;100628.50;;;1.18;99.52
76132;BME280;64877;50.994;13.650;2023-11-22T06:03:41;100637.75;;;1.39;99.11
76132;BME280;64877;50.994;13.650;2023-11-22T06:06:07;100630.06;;;1.26;98.59
76132;BME280;64877;50.994;13.650;2023-11-22T06:08:33;100627.72;;;1.50;98.83
76132;BME280;64877;50.994;13.650;2023-11-22T06:10:58;100630.53;;;1.44;97.89
76132;BME280;64877;50.994;13.650;2023-11-22T06:13:25;100641.53;;;1.28;98.44
76132;BME280;64877;50.994;13.650;2023-11-22T06:15:51;100635.25;;;1.33;98.89
76132;BME280;64877;50.994;13.650;2023-11-22T06:18:17;100636.69;;;1.46;98.64
76132;BME280;64877;50.994;13.650;2023-11-22T06:20:44;100658.81;;;1.48;98.12
76132;BME280;64877;50.994;13.650;2023-11-22T06:23:10;100643.59;;;1.53;97.34
76132;BME280;64877;50.994;13.650;2023-11-22T06:25:35;100656.00;;;1.54;97.12
76132;BME280;64877;50.994;13.650;2023-11-22T06:28:02;100659.94;;;1.38;97.28
76132;BME280;64877;50.994;13.650;2023-11-22T06:30:28;100669.63;;;1.42;97.11
76132;BME280;64877;50.994;13.650;2023-11-22T06:32:53;100678.44;;;1.44;97.27
76132;BME280;64877;50.994;13.650;2023-11-22T06:35:22;100682.88;;;1.45;97.06
76132;BME280;64877;50.994;13.650;2023-11-22T06:37:47;100687.13;;;1.52;97.67
76132;BME280;64877;50.994;13.650;2023-11-22T06:40:13;100690.94;;;1.40;97.11
76132;BME280;64877;50.994;13.650;2023-11-22T06:42:40;100677.75;;;1.36;97.52
76132;BME280;64877;50.994;13.650;2023-11-22T06:45:06;100675.09;;;1.36;98.24
76132;BME280;64877;50.994;13.650;2023-11-22T06:47:35;100690.84;;;1.45;98.46
76132;BME280;64877;50.994;13.650;2023-11-22T06:50:02;100700.31;;;1.57;97.58
76132;BME280;64877;50.994;13.650;2023-11-22T06:52:29;100711.22;;;1.46;97.86
76132;BME280;64877;50.994;13.650;2023-11-22T06:54:54;100733.19;;;1.54;98.10
76132;BME280;64877;50.994;13.650;2023-11-22T06:57:20;100733.72;;;1.31;98.16
76132;BME280;64877;50.994;13.650;2023-11-22T06:59:53;100739.47;;;1.51;97.58
76132;BME280;64877;50.994;13.650;2023-11-22T07:02:19;100737.53;;;1.58;97.06
76132;BME280;64877;50.994;13.650;2023-11-22T07:04:44;100739.53;;;1.48;96.75
76132;BME280;64877;50.994;13.650;2023-11-22T07:07:10;100740.41;;;1.49;97.33
76132;BME280;64877;50.994;13.650;2023-11-22T07:09:36;100734.41;;;1.41;96.74
76132;BME280;64877;50.994;13.650;2023-11-22T07:12:02;100736.19;;;1.39;97.49
76132;BME280;64877;50.994;13.650;2023-11-22T07:14:31;100721.78;;;1.49;97.39
76132;BME280;64877;50.994;13.650;2023-11-22T07:16:57;100716.53;;;1.46;97.44
76132;BME280;64877;50.994;13.650;2023-11-22T07:19:23;100716.50;;;1.47;97.89
76132;BME280;64877;50.994;13.650;2023-11-22T07:21:48;100713.66;;;1.55;97.36
76132;BME280;64877;50.994;13.650;2023-11-22T07:24:14;100721.09;;;1.41;97.00
76132;BME280;64877;50.994;13.650;2023-11-22T07:26:41;100716.44;;;1.49;97.27
76132;BME280;64877;50.994;13.650;2023-11-22T07:29:07;100708.47;;;1.49;97.20
76132;BME280;64877;50.994;13.650;2023-11-22T07:31:33;100721.09;;;1.41;97.38
76132;BME280;64877;50.994;13.650;2023-11-22T07:33:59;100721.09;;;1.41;98.55
76132;BME280;64877;50.994;13.650;2023-11-22T07:36:27;100732.84;;;1.31;98.89
76132;BME280;64877;50.994;13.650;2023-11-22T07:38:54;100737.97;;;1.40;98.88
76132;BME280;64877;50.994;13.650;2023-11-22T07:41:19;100748.28;;;1.55;99.49
76132;BME280;64877;50.994;13.650;2023-11-22T07:43:46;100746.72;;;1.45;99.01
76132;BME280;64877;50.994;13.650;2023-11-22T07:46:12;100752.81;;;1.50;97.93
76132;BME280;64877;50.994;13.650;2023-11-22T07:48:38;100764.56;;;1.41;99.11
76132;BME280;64877;50.994;13.650;2023-11-22T07:51:06;100772.44;;;1.46;98.66
76132;BME280;64877;50.994;13.650;2023-11-22T07:53:31;100776.91;;;1.44;98.91
76132;BME280;64877;50.994;13.650;2023-11-22T07:56:00;100785.94;;;1.37;98.81
76132;BME280;64877;50.994;13.650;2023-11-22T07:58:32;100789.38;;;1.42;98.86
76132;BME280;64877;50.994;13.650;2023-11-22T08:01:01;100784.25;;;1.33;99.37
76132;BME280;64877;50.994;13.650;2023-11-22T08:03:30;100791.88;;;1.48;100.00
76132;BME280;64877;50.994;13.650;2023-11-22T08:05:55;100802.69;;;1.42;98.82
76132;BME280;64877;50.994;13.650;2023-11-22T08:08:22;100800.75;;;1.48;98.70
76132;BME280;64877;50.994;13.650;2023-11-22T08:10:48;100804.69;;;1.31;98.15
76132;BME280;64877;50.994;13.650;2023-11-22T08:13:17;100807.94;;;1.45;98.82
76132;BME280;64877;50.994;13.650;2023-11-22T08:15:45;100811.81;;;1.69;97.37
76132;BME280;64877;50.994;13.650;2023-11-22T08:18:12;100810.59;;;1.84;97.31
76132;BME280;64877;50.994;13.650;2023-11-22T08:20:38;100818.72;;;1.77;96.40
76132;BME280;64877;50.994;13.650;2023-11-22T08:23:03;100826.47;;;1.90;95.94
76132;BME280;64877;50.994;13.650;2023-11-22T08:25:31;100827.34;;;1.89;96.36
76132;BME280;64877;50.994;13.650;2023-11-22T08:27:57;100821.50;;;1.73;95.78
76132;BME280;64877;50.994;13.650;2023-11-22T08:30:22;100819.69;;;1.75;97.35
76132;BME280;64877;50.994;13.650;2023-11-22T08:32:48;100814.53;;;1.67;97.47
76132;BME280;64877;50.994;13.650;2023-11-22T08:35:19;100819.03;;;1.65;99.15
76132;BME280;64877;50.994;13.650;2023-11-22T08:37:47;100824.97;;;1.76;99.27
76132;BME280;64877;50.994;13.650;2023-11-22T08:40:13;100824.31;;;1.67;99.07
76132;BME280;64877;50.994;13.650;2023-11-22T08:42:42;100834.03;;;1.69;99.32
76132;BME280;64877;50.994;13.650;2023-11-22T08:45:08;100829.34;;;1.79;99.83
76132;BME280;64877;50.994;13.650;2023-11-22T08:47:34;100828.47;;;1.78;98.63
76132;BME280;64877;50.994;13.650;2023-11-22T08:50:00;100825.91;;;1.74;97.74
76132;BME280;64877;50.994;13.650;2023-11-22T08:52:25;100823.38;;;1.69;98.65
76132;BME280;64877;50.994;13.650;2023-11-22T08:54:51;100815.34;;;1.71;98.09
76132;BME280;64877;50.994;13.650;2023-11-22T08:57:17;100809.34;;;1.61;97.28
76132;BME280;64877;50.994;13.650;2023-11-22T08:59:43;100808.19;;;1.73;97.59
76132;BME280;64877;50.994;13.650;2023-11-22T09:02:08;100809.81;;;1.80;97.32
76132;BME280;64877;50.994;13.650;2023-11-22T09:04:35;100815.88;;;1.87;97.23
76132;BME280;64877;50.994;13.650;2023-11-22T09:07:00;100815.91;;;1.85;96.04
76132;BME280;64877;50.994;13.650;2023-11-22T09:09:26;100813.88;;;1.96;95.12
76132;BME280;64877;50.994;13.650;2023-11-22T09:11:59;100813.81;;;1.99;94.01
76132;BME280;64877;50.994;13.650;2023-11-22T09:14:24;100814.03;;;1.89;93.67
76132;BME280;64877;50.994;13.650;2023-11-22T09:16:50;100809.50;;;1.92;94.42
76132;BME280;64877;50.994;13.650;2023-11-22T09:19:23;100820.88;;;1.99;94.90
76132;BME280;64877;50.994;13.650;2023-11-22T09:21:50;100830.66;;;1.98;93.55
76132;BME280;64877;50.994;13.650;2023-11-22T09:24:16;100834.19;;;2.00;91.47
76132;BME280;64877;50.994;13.650;2023-11-22T09:26:42;100838.00;;;1.89;91.74
76132;BME280;64877;50.994;13.650;2023-11-22T09:29:10;100844.34;;;1.85;91.78
76132;BME280;64877;50.994;13.650;2023-11-22T09:31:39;100846.34;;;1.73;92.89
76132;BME280;64877;50.994;13.650;2023-11-22T09:34:04;100846.53;;;1.66;92.43
76132;BME280;64877;50.994;13.650;2023-11-22T09:36:30;100839.38;;;1.68;92.76
76132;BME280;64877;50.994;13.650;2023-11-22T09:38:59;100841.19;;;1.66;93.39
76132;BME280;64877;50.994;13.650;2023-11-22T09:41:25;100844.69;;;1.69;92.18
76132;BME280;64877;50.994;13.650;2023-11-22T09:43:52;100842.22;;;1.59;93.40
76132;BME280;64877;50.994;13.650;2023-11-22T09:46:18;100841.00;;;1.73;92.66
76132;BME280;64877;50.994;13.650;2023-11-22T09:48:47;100829.47;;;1.74;93.40
76132;BME280;64877;50.994;13.650;2023-11-22T09:51:24;100833.22;;;1.66;92.81
76132;BME280;64877;50.994;13.650;2023-11-22T09:56:19;100831.41;;;1.66;92.25
76132;BME280;64877;50.994;13.650;2023-11-22T09:58:46;100834.31;;;1.55;91.38
76132;BME280;64877;50.994;13.650;2023-11-22T10:01:17;100831.66;;;1.54;91.76
76132;BME280;64877;50.994;13.650;2023-11-22T10:03:42;100839.41;;;1.66;91.26
76132;BME280;64877;50.994;13.650;2023-11-22T10:06:08;100833.22;;;1.66;91.52
76132;BME280;64877;50.994;13.650;2023-11-22T10:08:34;100831.56;;;1.59;92.13
76132;BME280;64877;50.994;13.650;2023-11-22T10:11:00;100823.44;;;1.66;92.71
76132;BME280;64877;50.994;13.650;2023-11-22T10:13:27;100819.50;;;1.83;94.36
76132;BME280;64877;50.994;13.650;2023-11-22T10:15:53;100821.44;;;1.76;92.33
76132;BME280;64877;50.994;13.650;2023-11-22T10:18:19;100833.78;;;1.80;89.95
76132;BME280;64877;50.994;13.650;2023-11-22T10:20:47;100839.88;;;1.85;88.55
76132;BME280;64877;50.994;13.650;2023-11-22T10:23:18;100838.00;;;1.89;87.95
76132;BME280;64877;50.994;13.650;2023-11-22T10:25:49;100840.44;;;1.98;87.76
76132;BME280;64877;50.994;13.650;2023-11-22T10:28:22;100837.00;;;1.94;86.39
76132;BME280;64877;50.994;13.650;2023-11-22T10:30:50;100832.50;;;1.96;83.75
76132;BME280;64877;50.994;13.650;2023-11-22T10:33:17;100827.91;;;2.03;84.83
76132;BME280;64877;50.994;13.650;2023-11-22T10:35:50;100818.06;;;2.06;83.83
76132;BME280;64877;50.994;13.650;2023-11-22T10:38:19;100818.72;;;2.16;84.49
76132;BME280;64877;50.994;13.650;2023-11-22T10:40:46;100812.31;;;2.23;84.06
76132;BME280;64877;50.994;13.650;2023-11-22T10:43:14;100806.03;;;2.26;82.39
76132;BME280;64877;50.994;13.650;2023-11-22T10:45:41;100800.44;;;2.37;81.55
76132;BME280;64877;50.994;13.650;2023-11-22T10:48:10;100794.34;;;2.31;81.59
76132;BME280;64877;50.994;13.650;2023-11-22T10:50:36;100802.06;;;2.42;80.20
76132;BME280;64877;50.994;13.650;2023-11-22T10:53:06;100818.84;;;2.46;81.36
76132;BME280;64877;50.994;13.650;2023-11-22T10:55:33;100813.81;;;2.33;80.78
76132;BME280;64877;50.994;13.650;2023-11-22T10:58:02;100812.94;;;2.35;80.66
76132;BME280;64877;50.994;13.650;2023-11-22T11:00:31;100824.19;;;2.10;79.60
76132;BME280;64877;50.994;13.650;2023-11-22T11:03:05;100822.19;;;2.18;80.63
76132;BME280;64877;50.994;13.650;2023-11-22T11:05:38;100821.69;;;2.40;78.55
76132;BME280;64877;50.994;13.650;2023-11-22T11:08:08;100829.91;;;2.30;79.48
76132;BME280;64877;50.994;13.650;2023-11-22T11:10:39;100846.66;;;2.36;79.94
76132;BME280;64877;50.994;13.650;2023-11-22T11:13:06;100857.38;;;2.32;80.10
76132;BME280;64877;50.994;13.650;2023-11-22T11:15:32;100867.97;;;2.36;79.45
76132;BME280;64877;50.994;13.650;2023-11-22T11:17:58;100870.72;;;2.32;80.69
76132;BME280;64877;50.994;13.650;2023-11-22T11:20:24;100876.25;;;2.25;81.26
76132;BME280;64877;50.994;13.650;2023-11-22T11:22:50;100885.06;;;2.27;81.58
76132;BME280;64877;50.994;13.650;2023-11-22T11:25:17;100876.19;;;2.26;81.07
76132;BME280;64877;50.994;13.650;2023-11-22T11:27:44;100886.69;;;2.32;80.60
76132;BME280;64877;50.994;13.650;2023-11-22T11:30:49;100884.91;;;2.35;80.49
76132;BME280;64877;50.994;13.650;2023-11-22T11:33:18;100880.59;;;2.27;80.94
76132;BME280;64877;50.994;13.650;2023-11-22T11:35:46;100874.28;;;2.31;79.90
76132;BME280;64877;50.994;13.650;2023-11-22T11:38:14;100866.38;;;2.28;78.02
76132;BME280;64877;50.994;13.650;2023-11-22T11:40:45;100856.34;;;2.40;76.67
76132;BME280;64877;50.994;13.650;2023-11-22T11:43:12;100862.44;;;2.43;77.14
76132;BME280;64877;50.994;13.650;2023-11-22T11:45:42;100868.69;;;2.44;76.11
76132;BME280;64877;50.994;13.650;2023-11-22T11:48:13;100866.91;;;2.43;75.56
76132;BME280;64877;50.994;13.650;2023-11-22T11:50:39;100870.38;;;2.46;75.67
76132;BME280;64877;50.994;13.650;2023-11-22T11:53:04;100870.28;;;2.51;76.38
76132;BME280;64877;50.994;13.650;2023-11-22T11:55:30;100871.78;;;2.61;75.92
76132;BME280;64877;50.994;13.650;2023-11-22T11:57:56;100881.09;;;2.45;73.35
76132;BME280;64877;50.994;13.650;2023-11-22T12:00:22;100876.84;;;2.36;71.70
76132;BME280;64877;50.994;13.650;2023-11-22T12:02:50;100875.66;;;2.48;72.03
76132;BME280;64877;50.994;13.650;2023-11-22T12:05:18;100868.84;;;2.36;70.18
76132;BME280;64877;50.994;13.650;2023-11-22T12:07:46;100868.91;;;2.35;71.65
76132;BME280;64877;50.994;13.650;2023-11-22T12:10:11;100874.03;;;2.42;71.55
76132;BME280;64877;50.994;13.650;2023-11-22T12:12:37;100872.94;;;2.51;73.69
76132;BME280;64877;50.994;13.650;2023-11-22T12:15:05;100873.47;;;2.65;74.95
76132;BME280;64877;50.994;13.650;2023-11-22T12:17:32;100863.34;;;2.44;74.81
76132;BME280;64877;50.994;13.650;2023-11-22T12:20:11;100860.78;;;2.39;75.40
76132;BME280;64877;50.994;13.650;2023-11-22T12:22:38;100857.97;;;2.45;74.12
76132;BME280;64877;50.994;13.650;2023-11-22T12:25:05;100848.13;;;2.49;74.75
76132;BME280;64877;50.994;13.650;2023-11-22T12:27:30;100834.03;;;2.44;75.64
76132;BME280;64877;50.994;13.650;2023-11-22T12:29:56;100835.03;;;2.38;72.55
76132;BME280;64877;50.994;13.650;2023-11-22T12:32:24;100836.53;;;2.50;73.39
76132;BME280;64877;50.994;13.650;2023-11-22T12:34:50;100843.28;;;2.27;74.29
76132;BME280;64877;50.994;13.650;2023-11-22T12:37:20;100844.91;;;2.35;74.54
76132;BME280;64877;50.994;13.650;2023-11-22T12:39:47;100824.47;;;2.33;75.23
76132;BME280;64877;50.994;13.650;2023-11-22T12:42:13;100814.97;;;2.23;74.71
76132;BME280;64877;50.994;13.650;2023-11-22T12:44:51;100811.81;;;2.07;74.52